createdAt,value
2018-08-10T00:00:06.770Z,0.00
2018-08-10T00:01:06.761Z,0.00
2018-08-10T00:02:06.748Z,0.00
2018-08-10T00:03:06.733Z,0.00
2018-08-10T00:04:06.723Z,0.00
2018-08-10T00:05:06.712Z,0.00
2018-08-10T00:06:06.701Z,0.00
2018-08-10T00:07:06.690Z,0.00
2018-08-10T00:08:06.677Z,0.00
2018-08-10T00:09:06.668Z,0.00
2018-08-10T00:10:06.655Z,0.00
2018-08-10T00:11:06.644Z,0.00
2018-08-10T00:12:06.631Z,0.00
2018-08-10T00:13:49.152Z,0.00
2018-08-10T00:14:49.154Z,0.00
2018-08-10T00:15:49.151Z,0.00
2018-08-10T00:16:49.133Z,0.00
2018-08-10T00:17:49.334Z,0.00
2018-08-10T00:18:50.002Z,0.00
2018-08-10T00:29:44.759Z,0.00
2018-08-10T00:31:15.532Z,0.00
2018-08-10T00:32:15.838Z,0.00
2018-08-10T00:33:15.522Z,0.00
2018-08-10T00:38:22.068Z,0.00
2018-08-10T00:45:15.365Z,0.00
2018-08-10T00:46:16.709Z,0.00
2018-08-10T00:48:15.327Z,0.00
2018-08-10T00:49:15.316Z,0.00
2018-08-10T00:50:15.305Z,0.00
2018-08-10T00:51:15.295Z,0.00
2018-08-10T00:55:15.248Z,0.00
2018-08-10T00:56:15.232Z,0.00
2018-08-10T01:00:15.187Z,0.00
2018-08-10T01:01:15.174Z,0.00
2018-08-10T01:02:15.161Z,0.00
2018-08-10T01:03:15.152Z,0.00
2018-08-10T01:04:15.135Z,0.00
2018-08-10T01:05:15.126Z,0.00
2018-08-10T01:06:15.118Z,0.00
2018-08-10T01:07:15.101Z,0.00
2018-08-10T01:08:15.088Z,0.00
2018-08-10T01:09:15.076Z,0.00
2018-08-10T01:10:15.065Z,0.00
2018-08-10T01:11:15.053Z,0.00
2018-08-10T01:12:15.040Z,0.00
2018-08-10T01:13:15.051Z,0.00
2018-08-10T01:14:15.022Z,0.00
2018-08-10T01:15:15.008Z,0.00
2018-08-10T01:16:14.995Z,0.00
2018-08-10T01:24:14.897Z,0.00
2018-08-10T01:25:14.887Z,0.00
2018-08-10T01:27:14.858Z,0.00
2018-08-10T01:28:14.882Z,0.00
2018-08-10T01:29:14.837Z,0.00
2018-08-10T01:30:14.820Z,0.00
2018-08-10T01:31:14.810Z,0.00
2018-08-10T01:32:14.795Z,0.00
2018-08-10T01:33:14.788Z,0.00
2018-08-10T01:34:14.775Z,0.00
2018-08-10T01:35:14.760Z,0.00
2018-08-10T01:36:14.746Z,0.00
2018-08-10T01:37:14.736Z,0.00
2018-08-10T01:38:14.723Z,0.00
2018-08-10T01:39:14.710Z,0.00
2018-08-10T01:40:15.911Z,0.00
2018-08-10T01:41:14.686Z,0.00
2018-08-10T01:42:14.674Z,0.00
2018-08-10T01:43:14.662Z,0.00
2018-08-10T01:44:14.657Z,0.00
2018-08-10T01:45:14.638Z,0.00
2018-08-10T01:46:14.626Z,0.00
2018-08-10T01:47:14.612Z,0.00
2018-08-10T01:48:14.600Z,0.00
2018-08-10T01:49:14.587Z,0.00
2018-08-10T01:50:14.575Z,0.00
2018-08-10T01:51:14.562Z,0.00
2018-08-10T01:52:14.550Z,0.00
2018-08-10T01:55:14.514Z,0.00
2018-08-10T01:56:14.506Z,0.00
2018-08-10T01:57:14.487Z,0.00
2018-08-10T01:58:14.476Z,0.00
2018-08-10T01:59:14.465Z,0.00
2018-08-10T02:00:14.450Z,0.00
2018-08-10T02:01:14.437Z,0.00
2018-08-10T02:02:14.426Z,0.00
2018-08-10T02:03:14.413Z,0.00
2018-08-10T02:04:14.400Z,0.00
2018-08-10T02:05:14.389Z,0.00
2018-08-10T02:06:14.375Z,0.00
2018-08-10T02:07:14.365Z,0.00
2018-08-10T02:08:14.357Z,0.00
2018-08-10T02:09:14.338Z,0.00
2018-08-10T02:10:14.327Z,0.00
2018-08-10T02:11:14.314Z,0.00
2018-08-10T02:12:14.300Z,0.00
2018-08-10T02:13:14.290Z,0.00
2018-08-10T02:14:14.276Z,0.00
2018-08-10T02:15:14.265Z,0.00
2018-08-10T02:16:14.255Z,0.00
2018-08-10T02:17:14.250Z,0.00
2018-08-10T02:18:14.227Z,0.00
2018-08-10T02:19:14.220Z,0.00
2018-08-10T02:20:14.209Z,0.00
2018-08-10T02:21:14.192Z,0.00
2018-08-10T02:22:14.178Z,0.00
2018-08-10T02:23:14.164Z,0.00
2018-08-10T02:24:14.152Z,0.00
2018-08-10T02:25:14.140Z,0.00
2018-08-10T02:26:14.132Z,0.00
2018-08-10T02:27:14.133Z,0.00
2018-08-10T02:28:14.103Z,0.00
2018-08-10T02:29:14.091Z,0.00
2018-08-10T02:30:14.081Z,0.00
2018-08-10T02:31:14.071Z,0.00
2018-08-10T02:32:14.053Z,0.00
2018-08-10T02:33:14.041Z,0.00
2018-08-10T02:34:14.027Z,0.00
2018-08-10T02:35:14.018Z,0.00
2018-08-10T02:36:14.003Z,0.00
2018-08-10T02:37:13.993Z,0.00
2018-08-10T02:38:13.984Z,0.00
2018-08-10T02:39:13.966Z,0.00
2018-08-10T02:40:13.959Z,0.00
2018-08-10T02:41:13.942Z,0.00
2018-08-10T02:42:13.931Z,0.00
2018-08-10T02:43:13.917Z,0.00
2018-08-10T02:44:13.908Z,0.00
2018-08-10T02:45:13.894Z,0.00
2018-08-10T02:46:13.881Z,0.00
2018-08-10T02:47:13.869Z,0.00
2018-08-10T02:48:13.854Z,0.00
2018-08-10T02:49:13.844Z,0.00
2018-08-10T02:50:13.828Z,0.00
2018-08-10T02:51:13.819Z,0.00
2018-08-10T02:52:13.806Z,0.00
2018-08-10T02:53:13.795Z,0.00
2018-08-10T02:54:13.779Z,0.00
2018-08-10T02:55:13.770Z,0.00
2018-08-10T02:56:13.758Z,0.00
2018-08-10T02:57:13.742Z,0.00
2018-08-10T02:58:13.731Z,0.00
2018-08-10T02:59:13.718Z,0.00
2018-08-10T03:00:13.932Z,0.00
2018-08-10T03:01:13.696Z,0.00
2018-08-10T03:03:11.419Z,0.00
2018-08-10T03:04:11.406Z,0.00
2018-08-10T03:05:11.394Z,0.00
2018-08-10T03:06:11.379Z,0.00
2018-08-10T03:07:11.370Z,4.00
2018-08-10T03:08:11.359Z,4.00
2018-08-10T03:09:11.352Z,4.00
2018-08-10T03:10:11.333Z,0.00
2018-08-10T03:11:11.323Z,0.00
2018-08-10T03:12:11.306Z,4.00
2018-08-10T03:13:11.295Z,4.00
2018-08-10T03:14:11.283Z,4.00
2018-08-10T03:15:11.276Z,4.00
2018-08-10T03:16:11.256Z,8.00
2018-08-10T03:17:11.243Z,4.00
2018-08-10T03:18:11.230Z,8.00
2018-08-10T03:19:11.217Z,8.00
2018-08-10T03:20:11.206Z,12.00
2018-08-10T03:21:11.192Z,12.00
2018-08-10T03:22:11.209Z,12.00
2018-08-10T03:23:11.169Z,16.00
2018-08-10T03:24:11.159Z,16.00
2018-08-10T03:25:11.141Z,20.00
2018-08-10T03:26:11.131Z,20.00
2018-08-10T03:27:11.119Z,20.00
2018-08-10T03:28:11.110Z,24.00
2018-08-10T03:29:11.097Z,24.00
2018-08-10T03:30:11.080Z,24.00
2018-08-10T03:31:11.068Z,24.00
2018-08-10T03:32:11.055Z,28.00
2018-08-10T03:33:11.043Z,24.00
2018-08-10T03:34:11.029Z,28.00
2018-08-10T03:35:11.016Z,28.00
2018-08-10T03:36:11.004Z,32.00
2018-08-10T03:37:10.993Z,32.00
2018-08-10T03:38:10.980Z,32.00
2018-08-10T03:39:10.972Z,36.00
2018-08-10T03:40:10.957Z,44.00
2018-08-10T03:41:10.941Z,52.00
2018-08-10T03:42:10.929Z,64.00
2018-08-10T03:43:10.916Z,68.00
2018-08-10T03:44:10.904Z,72.00
2018-08-10T03:45:10.892Z,80.00
2018-08-10T03:46:10.878Z,96.00
2018-08-10T03:47:10.875Z,116.00
2018-08-10T03:48:10.856Z,148.00
2018-08-10T03:49:10.842Z,176.00
2018-08-10T03:50:10.834Z,192.00
2018-08-10T03:51:10.815Z,200.00
2018-08-10T03:52:10.805Z,196.00
2018-08-10T03:53:10.792Z,180.00
2018-08-10T03:54:10.779Z,164.00
2018-08-10T03:55:10.767Z,152.00
2018-08-10T03:56:10.755Z,152.00
2018-08-10T03:57:10.745Z,164.00
2018-08-10T03:58:10.730Z,164.00
2018-08-10T03:59:10.718Z,164.00
2018-08-10T04:00:10.706Z,172.00
2018-08-10T04:01:10.691Z,168.00
2018-08-10T04:02:10.680Z,160.00
2018-08-10T04:03:10.668Z,136.00
2018-08-10T04:04:10.656Z,136.00
2018-08-10T04:05:10.645Z,172.00
2018-08-10T04:06:10.628Z,208.00
2018-08-10T04:07:10.618Z,232.00
2018-08-10T04:08:10.605Z,248.00
2018-08-10T04:09:10.590Z,264.00
2018-08-10T04:10:10.578Z,280.00
2018-08-10T04:11:10.566Z,284.00
2018-08-10T04:12:13.175Z,264.00
2018-08-10T04:13:10.541Z,264.00
2018-08-10T04:14:10.529Z,244.00
2018-08-10T04:15:10.519Z,264.00
2018-08-10T04:16:10.506Z,288.00
2018-08-10T04:17:10.492Z,288.00
2018-08-10T04:18:10.482Z,288.00
2018-08-10T04:19:10.468Z,312.00
2018-08-10T04:20:10.455Z,336.00
2018-08-10T04:21:10.448Z,328.00
2018-08-10T04:22:10.433Z,344.00
2018-08-10T04:23:10.421Z,348.00
2018-08-10T04:24:10.410Z,360.00
2018-08-10T04:25:10.396Z,404.00
2018-08-10T04:26:10.382Z,436.00
2018-08-10T04:27:10.373Z,464.00
2018-08-10T04:28:10.356Z,452.00
2018-08-10T04:29:10.343Z,424.00
2018-08-10T04:30:10.350Z,460.00
2018-08-10T04:31:10.320Z,536.00
2018-08-10T04:32:10.318Z,608.00
2018-08-10T04:33:10.308Z,624.00
2018-08-10T04:34:10.286Z,648.00
2018-08-10T04:35:10.270Z,712.00
2018-08-10T04:46:44.150Z,528.00
2018-08-10T04:47:44.137Z,472.00
2018-08-10T04:48:44.133Z,448.00
2018-08-10T04:49:44.113Z,440.00
2018-08-10T04:50:44.101Z,468.00
2018-08-10T04:51:44.091Z,444.00
2018-08-10T04:52:44.078Z,368.00
2018-08-10T04:53:44.065Z,320.00
2018-08-10T04:54:44.057Z,308.00
2018-08-10T04:55:44.040Z,316.00
2018-08-10T04:56:44.031Z,324.00
2018-08-10T04:57:44.018Z,340.00
2018-08-10T04:58:44.006Z,356.00
2018-08-10T04:59:43.993Z,356.00
2018-08-10T05:00:43.980Z,360.00
2018-08-10T05:01:43.971Z,384.00
2018-08-10T05:02:43.956Z,400.00
2018-08-10T05:03:43.985Z,436.00
2018-08-10T05:04:43.932Z,464.00
2018-08-10T05:05:43.919Z,500.00
2018-08-10T05:06:43.910Z,568.00
2018-08-10T05:07:43.894Z,624.00
2018-08-10T05:08:43.895Z,636.00
2018-08-10T05:09:43.917Z,624.00
2018-08-10T05:10:43.858Z,588.00
2018-08-10T05:11:43.847Z,552.00
2018-08-10T05:12:43.832Z,536.00
2018-08-10T05:13:43.821Z,500.00
2018-08-10T05:14:43.812Z,464.00
2018-08-10T05:15:43.846Z,468.00
2018-08-10T05:16:43.783Z,512.00
2018-08-10T05:17:43.776Z,580.00
2018-08-10T05:18:43.758Z,644.00
2018-08-10T05:19:43.751Z,724.00
2018-08-10T05:20:43.740Z,844.00
2018-08-10T05:21:43.724Z,876.00
2018-08-10T05:22:43.713Z,904.00
2018-08-10T05:23:43.699Z,936.00
2018-08-10T05:24:43.723Z,968.00
2018-08-10T05:25:43.674Z,1016.00
2018-08-10T05:26:43.661Z,1064.00
2018-08-10T05:27:43.663Z,1028.00
2018-08-10T05:28:43.645Z,932.00
2018-08-10T05:29:43.623Z,932.00
2018-08-10T05:30:43.616Z,952.00
2018-08-10T05:31:43.599Z,992.00
2018-08-10T05:32:43.592Z,1032.00
2018-08-10T05:33:47.612Z,1056.00
2018-08-10T05:34:43.576Z,1036.00
2018-08-10T05:35:43.551Z,1152.00
2018-08-10T05:36:43.538Z,1300.00
2018-08-10T05:37:43.525Z,1484.00
2018-08-10T05:38:43.517Z,1488.00
2018-08-10T05:39:43.502Z,1472.00
2018-08-10T05:40:43.490Z,1476.00
2018-08-10T05:41:43.478Z,1464.00
2018-08-10T05:42:43.467Z,1524.00
2018-08-10T05:43:43.454Z,1620.00
2018-08-10T05:44:43.446Z,1772.00
2018-08-10T05:45:43.427Z,1596.00
2018-08-10T05:46:43.463Z,1548.00
2018-08-10T05:47:43.406Z,1532.00
2018-08-10T05:48:43.391Z,1648.00
2018-08-10T05:49:43.380Z,1808.00
2018-08-10T05:50:43.369Z,1832.00
2018-08-10T05:51:43.365Z,1784.00
2018-08-10T05:52:43.343Z,1680.00
2018-08-10T05:53:43.330Z,1940.00
2018-08-10T05:54:43.319Z,2028.00
2018-08-10T05:55:43.306Z,1776.00
2018-08-10T05:56:43.296Z,1724.00
2018-08-10T05:57:43.284Z,1912.00
2018-08-10T05:58:43.269Z,1996.00
2018-08-10T05:59:43.255Z,1840.00
2018-08-10T06:00:43.311Z,1472.00
2018-08-10T06:01:43.233Z,1576.00
2018-08-10T06:02:45.841Z,1720.00
2018-08-10T06:03:46.001Z,1772.00
2018-08-10T06:05:25.731Z,1840.00
2018-08-10T06:06:28.338Z,1528.00
2018-08-10T06:07:26.108Z,2184.00
2018-08-10T06:11:50.872Z,3392.00
2018-08-10T06:14:43.395Z,3320.00
2018-08-10T06:15:43.386Z,3572.00
2018-08-10T06:22:22.048Z,3212.00
2018-08-10T06:41:43.940Z,1996.00
2018-08-10T06:42:43.917Z,2100.00
2018-08-10T06:43:43.910Z,2080.00
2018-08-10T06:46:27.162Z,1948.00
2018-08-10T06:47:27.151Z,2052.00
2018-08-10T06:48:27.141Z,2112.00
2018-08-10T06:49:27.125Z,2004.00
2018-08-10T06:50:27.113Z,1964.00
2018-08-10T06:51:27.109Z,2056.00
2018-08-10T06:52:27.094Z,2028.00
2018-08-10T06:53:27.076Z,2120.00
2018-08-10T06:54:29.685Z,2212.00
2018-08-10T06:55:27.054Z,2200.00
2018-08-10T06:57:09.566Z,2132.00
2018-08-10T06:58:09.556Z,1984.00
2018-08-10T06:59:09.548Z,1888.00
2018-08-10T07:00:09.531Z,1808.00
2018-08-10T07:01:09.597Z,1832.00
2018-08-10T07:02:09.511Z,1908.00
2018-08-10T07:03:09.496Z,2084.00
2018-08-10T07:04:09.488Z,2348.00
2018-08-10T07:05:09.473Z,2464.00
2018-08-10T07:06:09.456Z,2548.00
2018-08-10T07:07:09.444Z,2484.00
2018-08-10T07:08:09.432Z,2352.00
2018-08-10T07:09:09.418Z,2220.00
2018-08-10T07:10:09.411Z,2360.00
2018-08-10T07:11:09.400Z,2588.00
2018-08-10T07:13:52.649Z,2884.00
2018-08-10T07:14:52.640Z,2876.00
2018-08-10T07:15:52.633Z,3052.00
2018-08-10T07:16:52.613Z,3128.00
2018-08-10T07:17:52.605Z,3100.00
2018-08-10T07:18:52.590Z,3020.00
2018-08-10T07:19:52.581Z,3288.00
2018-08-10T07:20:52.564Z,3980.00
2018-08-10T07:21:52.554Z,4440.00
2018-08-10T07:22:52.541Z,4208.00
2018-08-10T07:23:52.524Z,3912.00
2018-08-10T07:24:52.517Z,3960.00
2018-08-10T07:25:52.500Z,4220.00
2018-08-10T07:26:52.536Z,4460.00
2018-08-10T07:27:53.688Z,4580.00
2018-08-10T07:29:40.003Z,5136.00
2018-08-10T08:41:14.055Z,8048.00
2018-08-10T08:48:46.456Z,11676.00
2018-08-10T08:49:46.445Z,11592.00
2018-08-10T08:50:46.432Z,11396.00
2018-08-10T08:51:46.424Z,12780.00
2018-08-10T08:52:46.407Z,12784.00
2018-08-10T08:53:46.402Z,11792.00
2018-08-10T08:54:46.385Z,11380.00
2018-08-10T08:55:46.371Z,11032.00
2018-08-10T08:56:46.362Z,12388.00
2018-08-10T08:57:46.350Z,13136.00
2018-08-10T08:58:46.339Z,12704.00
2018-08-10T08:59:46.330Z,13888.00
2018-08-10T09:00:46.320Z,14752.00
2018-08-10T09:01:46.304Z,15984.00
2018-08-10T09:02:46.295Z,15008.00
2018-08-10T09:03:46.285Z,15224.00
2018-08-10T09:04:46.277Z,15048.00
2018-08-10T09:05:46.262Z,12644.00
2018-08-10T09:06:46.251Z,10832.00
2018-08-10T09:07:46.289Z,9264.00
2018-08-10T09:08:46.228Z,10208.00
2018-08-10T09:09:46.220Z,10700.00
2018-08-10T09:10:46.205Z,10612.00
2018-08-10T09:11:46.195Z,9048.00
2018-08-10T09:12:46.186Z,8144.00
2018-08-10T09:13:46.175Z,6920.00
2018-08-10T09:14:46.169Z,5036.00
2018-08-10T09:15:46.157Z,5612.00
2018-08-10T09:16:46.144Z,8664.00
2018-08-10T09:17:46.136Z,9488.00
2018-08-10T09:18:46.126Z,8584.00
2018-08-10T09:19:46.109Z,6984.00
2018-08-10T09:20:46.102Z,6232.00
2018-08-10T09:21:46.094Z,6452.00
2018-08-10T09:22:46.080Z,8384.00
2018-08-10T09:23:46.071Z,10224.00
2018-08-10T09:24:46.068Z,10652.00
2018-08-10T09:25:46.049Z,9112.00
2018-08-10T09:26:46.038Z,8352.00
2018-08-10T09:27:46.028Z,7492.00
2018-08-10T09:28:46.016Z,7432.00
2018-08-10T09:29:46.006Z,7424.00
2018-08-10T09:30:45.992Z,7540.00
2018-08-10T09:31:45.986Z,7492.00
2018-08-10T09:32:45.977Z,7172.00
2018-08-10T09:33:45.968Z,7116.00
2018-08-10T09:34:45.954Z,7856.00
2018-08-10T09:35:45.948Z,8192.00
2018-08-10T09:36:45.929Z,7480.00
2018-08-10T09:37:45.920Z,6004.00
2018-08-10T09:38:45.908Z,4644.00
2018-08-10T09:39:45.899Z,4628.00
2018-08-10T09:40:45.886Z,5512.00
2018-08-10T09:41:45.878Z,6812.00
2018-08-10T09:42:45.868Z,7968.00
2018-08-10T09:43:45.856Z,9032.00
2018-08-10T09:44:45.845Z,8048.00
2018-08-10T09:45:45.834Z,7508.00
2018-08-10T09:46:45.822Z,7092.00
2018-08-10T09:47:45.815Z,8164.00
2018-08-10T09:48:45.801Z,9520.00
2018-08-10T09:49:45.796Z,9476.00
2018-08-10T09:50:45.780Z,10016.00
2018-08-10T09:51:45.771Z,11900.00
2018-08-10T09:52:45.759Z,12668.00
2018-08-10T09:53:45.751Z,13804.00
2018-08-10T09:54:45.737Z,12568.00
2018-08-10T09:55:45.732Z,14272.00
2018-08-10T09:56:45.717Z,15460.00
2018-08-10T09:57:45.732Z,18176.00
2018-08-10T09:58:45.699Z,18176.00
2018-08-10T09:59:45.731Z,18240.00
2018-08-10T10:00:45.673Z,18656.00
2018-08-10T10:01:45.668Z,19232.00
2018-08-10T10:02:45.661Z,18464.00
2018-08-10T10:03:45.646Z,18560.00
2018-08-10T10:04:45.636Z,15540.00
2018-08-10T10:05:45.627Z,14184.00
2018-08-10T10:06:45.613Z,14456.00
2018-08-10T10:07:45.612Z,15256.00
2018-08-10T10:08:45.599Z,9160.00
2018-08-10T10:09:45.585Z,6768.00
2018-08-10T10:10:45.575Z,7332.00
2018-08-10T10:11:45.565Z,11320.00
2018-08-10T10:12:45.557Z,11740.00
2018-08-10T10:13:45.544Z,11960.00
2018-08-10T10:14:45.536Z,7164.00
2018-08-10T10:15:45.526Z,6640.00
2018-08-10T10:16:45.516Z,11336.00
2018-08-10T10:17:45.506Z,14120.00
2018-08-10T10:18:45.498Z,36288.00
2018-08-10T10:19:45.486Z,34400.00
2018-08-10T10:20:45.510Z,23712.00
2018-08-10T10:21:45.466Z,19200.00
2018-08-10T10:22:45.456Z,10688.00
2018-08-10T10:23:45.449Z,16312.00
2018-08-10T10:24:45.440Z,35552.00
2018-08-10T10:25:45.436Z,50240.00
2018-08-10T10:26:45.419Z,45216.00
2018-08-10T10:27:45.409Z,43168.00
2018-08-10T10:28:45.401Z,71264.00
2018-08-10T10:29:45.393Z,39264.00
2018-08-10T10:30:45.388Z,21472.00
2018-08-10T10:31:45.391Z,64352.00
2018-08-10T10:32:45.470Z,29120.00
2018-08-10T10:33:45.358Z,83456.00
2018-08-10T10:34:45.351Z,66208.00
2018-08-10T10:35:45.342Z,13960.00
2018-08-10T10:36:45.337Z,18304.00
2018-08-10T10:37:45.330Z,66656.00
2018-08-10T10:38:45.318Z,27008.00
2018-08-10T10:39:45.314Z,24928.00
2018-08-10T10:40:45.304Z,21888.00
2018-08-10T10:41:45.313Z,28352.00
2018-08-10T10:42:45.291Z,50880.00
2018-08-10T10:43:45.281Z,64000.00
2018-08-10T10:44:45.275Z,49408.00
2018-08-10T10:45:45.267Z,28096.00
2018-08-10T10:46:45.260Z,17408.00
2018-08-10T10:47:45.253Z,14160.00
2018-08-10T10:48:45.248Z,10740.00
2018-08-10T10:49:45.241Z,9664.00
2018-08-10T10:50:45.242Z,6972.00
2018-08-10T10:51:45.226Z,5680.00
2018-08-10T10:52:45.225Z,5716.00
2018-08-10T10:53:45.212Z,6004.00
2018-08-10T10:54:45.204Z,7368.00
2018-08-10T10:55:45.196Z,5300.00
2018-08-10T10:56:45.281Z,6044.00
2018-08-10T10:57:45.182Z,8864.00
2018-08-10T10:58:45.170Z,11772.00
2018-08-10T10:59:45.168Z,23360.00
2018-08-10T11:00:45.161Z,41408.00
2018-08-10T11:01:45.164Z,26784.00
2018-08-10T11:02:45.143Z,24992.00
2018-08-10T11:03:45.135Z,23456.00
2018-08-10T11:04:45.130Z,43456.00
2018-08-10T11:05:45.119Z,42080.00
2018-08-10T11:06:45.113Z,34400.00
2018-08-10T11:07:45.110Z,30368.00
2018-08-10T11:08:45.103Z,32000.00
2018-08-10T11:09:45.093Z,29664.00
2018-08-10T11:10:45.085Z,27424.00
2018-08-10T11:11:45.077Z,21376.00
2018-08-10T11:12:45.074Z,12860.00
2018-08-10T11:13:45.062Z,20416.00
2018-08-10T11:14:45.057Z,22272.00
2018-08-10T11:15:45.049Z,29824.00
2018-08-10T11:16:45.045Z,20608.00
2018-08-10T11:17:45.036Z,21632.00
2018-08-10T11:18:45.027Z,29184.00
2018-08-10T11:19:45.020Z,35264.00
2018-08-10T11:20:45.020Z,46368.00
2018-08-10T11:21:45.009Z,29408.00
2018-08-10T11:22:45.003Z,25728.00
2018-08-10T11:23:44.996Z,31648.00
2018-08-10T11:24:44.987Z,54816.00
2018-08-10T11:25:45.085Z,42176.00
2018-08-10T11:26:44.973Z,46432.00
2018-08-10T11:27:44.966Z,40416.00
2018-08-10T11:28:44.958Z,47520.00
2018-08-10T11:29:44.951Z,43104.00
2018-08-10T11:30:44.946Z,50944.00
2018-08-10T11:31:44.938Z,32480.00
2018-08-10T11:32:44.934Z,50688.00
2018-08-10T11:33:44.927Z,61856.00
2018-08-10T11:34:44.930Z,79328.00
2018-08-10T11:35:45.119Z,71328.00
2018-08-10T11:36:44.912Z,73792.00
2018-08-10T11:37:44.907Z,35232.00
2018-08-10T11:38:44.896Z,78656.00
2018-08-10T11:39:44.892Z,77792.00
2018-08-10T11:40:44.889Z,70816.00
2018-08-10T11:41:44.883Z,89344.00
2018-08-10T11:42:44.879Z,83776.00
2018-08-10T11:43:44.871Z,20864.00
2018-08-10T11:44:44.865Z,106656.00
2018-08-10T11:45:44.870Z,18688.00
2018-08-10T11:46:44.858Z,15152.00
2018-08-10T11:47:44.853Z,12228.00
2018-08-10T11:48:44.848Z,13044.00
2018-08-10T11:49:44.846Z,12720.00
2018-08-10T11:50:44.836Z,103392.00
2018-08-10T11:51:44.837Z,26208.00
2018-08-10T11:52:44.828Z,91872.00
2018-08-10T11:53:44.822Z,80288.00
2018-08-10T11:54:44.818Z,78208.00
2018-08-10T11:55:44.813Z,79136.00
2018-08-10T11:56:44.805Z,79360.00
2018-08-10T11:57:44.802Z,90144.00
2018-08-10T11:58:44.811Z,93152.00
2018-08-10T11:59:44.793Z,93088.00
2018-08-10T12:00:44.787Z,91744.00
2018-08-10T12:01:44.815Z,83008.00
2018-08-10T12:02:44.783Z,75648.00
2018-08-10T12:03:44.775Z,94304.00
2018-08-10T12:04:44.770Z,21888.00
2018-08-10T12:05:44.787Z,88000.00
2018-08-10T12:06:44.760Z,78208.00
2018-08-10T12:07:44.756Z,11496.00
2018-08-10T12:08:44.752Z,64416.00
2018-08-10T12:09:44.749Z,39360.00
2018-08-10T12:10:44.747Z,17632.00
2018-08-10T12:11:44.743Z,18464.00
2018-08-10T12:12:44.754Z,12292.00
2018-08-10T12:13:44.737Z,11404.00
2018-08-10T12:14:44.726Z,11944.00
2018-08-10T12:15:44.727Z,11560.00
2018-08-10T12:16:44.719Z,15636.00
2018-08-10T12:17:44.714Z,16800.00
2018-08-10T12:18:44.711Z,15612.00
2018-08-10T12:19:44.707Z,11696.00
2018-08-10T12:20:44.700Z,26048.00
2018-08-10T12:21:44.695Z,24032.00
2018-08-10T12:22:44.691Z,37984.00
2018-08-10T12:23:44.686Z,25408.00
2018-08-10T12:24:44.738Z,11520.00
2018-08-10T12:25:44.677Z,9164.00
2018-08-10T12:26:44.674Z,9104.00
2018-08-10T12:27:44.672Z,8456.00
2018-08-10T12:28:44.663Z,8916.00
2018-08-10T12:29:44.654Z,8440.00
2018-08-10T12:30:44.648Z,9284.00
2018-08-10T12:31:44.643Z,9504.00
2018-08-10T12:32:44.639Z,9228.00
2018-08-10T12:33:44.637Z,8276.00
2018-08-10T12:34:44.640Z,8320.00
2018-08-10T12:35:44.620Z,8616.00
2018-08-10T12:36:44.620Z,7964.00
2018-08-10T12:37:44.613Z,17064.00
2018-08-10T12:38:44.608Z,15044.00
2018-08-10T12:39:44.601Z,56320.00
2018-08-10T12:40:44.595Z,39104.00
2018-08-10T12:41:44.590Z,16064.00
2018-08-10T12:42:44.585Z,7896.00
2018-08-10T12:43:44.575Z,7956.00
2018-08-10T12:44:44.571Z,8408.00
2018-08-10T12:45:44.565Z,8496.00
2018-08-10T12:46:44.561Z,8216.00
2018-08-10T12:47:44.733Z,7836.00
2018-08-10T12:48:44.548Z,7336.00
2018-08-10T12:49:44.538Z,7272.00
2018-08-10T12:50:44.615Z,6868.00
2018-08-10T12:51:44.538Z,6860.00
2018-08-10T12:52:44.524Z,6680.00
2018-08-10T12:53:44.513Z,6556.00
2018-08-10T12:54:44.513Z,7356.00
2018-08-10T12:55:44.503Z,5328.00
2018-08-10T12:56:44.494Z,6408.00
2018-08-10T12:57:44.492Z,7244.00
2018-08-10T12:58:44.486Z,4928.00
2018-08-10T12:59:44.475Z,4664.00
2018-08-10T13:00:44.469Z,4652.00
2018-08-10T13:01:44.467Z,7556.00
2018-08-10T13:02:44.609Z,7384.00
2018-08-10T13:03:44.448Z,7876.00
2018-08-10T13:04:44.441Z,6676.00
2018-08-10T13:05:44.447Z,5956.00
2018-08-10T13:06:44.434Z,3488.00
2018-08-10T13:07:44.423Z,4772.00
2018-08-10T13:08:44.419Z,6152.00
2018-08-10T13:09:44.412Z,6124.00
2018-08-10T13:10:44.474Z,5180.00
2018-08-10T13:11:44.396Z,5248.00
2018-08-10T13:12:44.390Z,4948.00
2018-08-10T13:13:44.376Z,6112.00
2018-08-10T13:14:44.370Z,7832.00
2018-08-10T13:15:44.363Z,7652.00
2018-08-10T13:16:44.355Z,6692.00
2018-08-10T13:17:44.353Z,5124.00
2018-08-10T13:18:44.348Z,4328.00
2018-08-10T13:19:44.333Z,4476.00
2018-08-10T13:20:44.331Z,5000.00
2018-08-10T13:21:44.323Z,5784.00
2018-08-10T13:22:44.312Z,7496.00
2018-08-10T13:23:44.351Z,6516.00
2018-08-10T13:24:44.298Z,6232.00
2018-08-10T13:25:44.291Z,6600.00
2018-08-10T13:26:44.278Z,6200.00
2018-08-10T13:27:44.274Z,5804.00
2018-08-10T13:28:44.271Z,5856.00
2018-08-10T13:29:44.259Z,5952.00
2018-08-10T13:30:44.250Z,5988.00
2018-08-10T13:31:44.242Z,6260.00
2018-08-10T13:32:44.233Z,3928.00
2018-08-10T13:33:44.230Z,3488.00
2018-08-10T13:34:44.220Z,3580.00
2018-08-10T13:35:44.210Z,4440.00
2018-08-10T13:36:44.209Z,5008.00
2018-08-10T13:37:44.196Z,4984.00
2018-08-10T13:38:44.185Z,7804.00
2018-08-10T13:39:44.187Z,7568.00
2018-08-10T13:40:44.209Z,6636.00
2018-08-10T13:41:44.161Z,5028.00
2018-08-10T13:42:44.150Z,6164.00
2018-08-10T13:43:44.298Z,5636.00
2018-08-10T13:44:44.133Z,5496.00
2018-08-10T13:45:44.130Z,5424.00
2018-08-10T13:46:44.119Z,5992.00
2018-08-10T13:47:44.114Z,4976.00
2018-08-10T13:48:44.104Z,5908.00
2018-08-10T13:49:44.093Z,6180.00
2018-08-10T13:50:44.088Z,6048.00
2018-08-10T13:51:44.080Z,5456.00
2018-08-10T13:52:44.071Z,6120.00
2018-08-10T13:53:44.064Z,7204.00
2018-08-10T13:54:44.051Z,7684.00
2018-08-10T13:55:44.046Z,7588.00
2018-08-10T13:56:44.032Z,7024.00
2018-08-10T13:57:44.024Z,4808.00
2018-08-10T13:58:44.076Z,4764.00
2018-08-10T13:59:44.005Z,6416.00
2018-08-10T14:00:44.007Z,6468.00
2018-08-10T14:01:43.996Z,6916.00
2018-08-10T14:02:43.983Z,6088.00
2018-08-10T14:03:43.974Z,5744.00
2018-08-10T14:04:43.964Z,5748.00
2018-08-10T14:05:43.987Z,5636.00
2018-08-10T14:06:43.945Z,5644.00
2018-08-10T14:07:43.940Z,5432.00
2018-08-10T14:08:43.937Z,5880.00
2018-08-10T14:09:43.925Z,6260.00
2018-08-10T14:10:43.920Z,5808.00
2018-08-10T14:11:43.909Z,5680.00
2018-08-10T14:12:43.899Z,5764.00
2018-08-10T14:13:43.889Z,5772.00
2018-08-10T14:14:43.882Z,5320.00
2018-08-10T14:15:43.929Z,4592.00
2018-08-10T14:16:43.861Z,4756.00
2018-08-10T14:17:43.854Z,4144.00
2018-08-10T14:18:43.846Z,3540.00
2018-08-10T14:19:43.835Z,4268.00
2018-08-10T14:20:43.829Z,4272.00
2018-08-10T14:21:43.816Z,2728.00
2018-08-10T14:22:43.805Z,1920.00
2018-08-10T14:23:43.797Z,2312.00
2018-08-10T14:24:43.790Z,2488.00
2018-08-10T14:25:43.781Z,3412.00
2018-08-10T14:26:43.773Z,3940.00
2018-08-10T14:27:43.766Z,3376.00
2018-08-10T14:28:43.766Z,2876.00
2018-08-10T14:29:43.749Z,2952.00
2018-08-10T14:30:43.741Z,3252.00
2018-08-10T14:31:43.744Z,3936.00
2018-08-10T14:32:43.717Z,4288.00
2018-08-10T14:33:43.706Z,3060.00
2018-08-10T14:34:43.700Z,2696.00
2018-08-10T14:35:43.689Z,3592.00
2018-08-10T14:36:43.677Z,4912.00
2018-08-10T14:37:43.670Z,4712.00
2018-08-10T14:38:43.660Z,4736.00
2018-08-10T14:39:43.658Z,4772.00
2018-08-10T14:40:43.644Z,4984.00
2018-08-10T14:41:43.637Z,5044.00
2018-08-10T14:42:43.630Z,4828.00
2018-08-10T14:43:43.617Z,4228.00
2018-08-10T14:44:43.606Z,4108.00
2018-08-10T14:45:43.598Z,4640.00
2018-08-10T14:46:43.604Z,4864.00
2018-08-10T14:47:43.582Z,4772.00
2018-08-10T14:48:43.569Z,4448.00
2018-08-10T14:49:43.557Z,4564.00
2018-08-10T14:50:43.552Z,4396.00
2018-08-10T14:51:43.541Z,4232.00
2018-08-10T14:52:43.532Z,4012.00
2018-08-10T14:53:43.569Z,3920.00
2018-08-10T14:54:43.521Z,3872.00
2018-08-10T14:55:43.505Z,3956.00
2018-08-10T14:56:43.500Z,3988.00
2018-08-10T14:57:43.482Z,3984.00
2018-08-10T14:58:43.473Z,3908.00
2018-08-10T14:59:43.463Z,4328.00
2018-08-10T15:00:43.492Z,4148.00